createdAt,value
2022-08-21T00:00:35.623Z,101669.59
2022-08-21T00:05:57.371Z,101665.09
2022-08-21T00:11:19.553Z,101651.13
2022-08-21T00:16:41.943Z,101648.34
2022-08-21T00:22:03.791Z,101644.72
2022-08-21T00:27:25.584Z,101636.59
2022-08-21T00:32:47.503Z,101629.06
2022-08-21T00:38:10.464Z,101630.16
2022-08-21T00:43:34.930Z,101626.53
2022-08-21T00:48:59.089Z,101628.75
2022-08-21T00:54:25.810Z,101633.22
2022-08-21T00:59:50.727Z,101633.22
2022-08-21T01:05:14.201Z,101636.28
2022-08-21T01:10:38.185Z,101629.00
2022-08-21T01:16:03.876Z,101629.00
2022-08-21T01:21:28.688Z,101627.28
2022-08-21T01:26:52.062Z,101632.03
2022-08-21T01:32:17.753Z,101637.63
2022-08-21T01:37:40.126Z,101639.81
2022-08-21T01:43:02.254Z,101629.75
2022-08-21T01:48:24.024Z,101626.97
2022-08-21T01:53:45.873Z,101629.75
2022-08-21T01:59:08.444Z,101621.66
2022-08-21T02:04:30.175Z,101623.59
2022-08-21T02:09:51.890Z,101626.38
2022-08-21T02:15:15.717Z,101623.59
2022-08-21T02:20:40.586Z,101610.72
2022-08-21T02:26:04.824Z,101611.88
2022-08-21T02:31:27.684Z,101618.56
2022-08-21T02:36:59.600Z,101612.97
2022-08-21T02:42:22.469Z,101608.47
2022-08-21T02:47:52.463Z,101602.63
2022-08-21T02:53:17.702Z,101604.00
2022-08-21T02:58:41.509Z,101612.91
2022-08-21T03:04:03.316Z,101603.16
2022-08-21T03:09:25.298Z,101609.84
2022-08-21T03:14:46.985Z,101604.53
2022-08-21T03:20:10.192Z,101602.84
2022-08-21T03:25:40.454Z,101597.25
2022-08-21T03:31:02.848Z,101602.84
2022-08-21T03:36:25.228Z,101591.66
2022-08-21T03:41:48.320Z,101577.13
2022-08-21T03:47:10.753Z,101581.00
2022-08-21T03:52:32.537Z,101583.81
2022-08-21T03:57:54.742Z,101580.19
2022-08-21T04:03:17.334Z,101581.28
2022-08-21T04:08:39.272Z,101589.94
2022-08-21T04:14:01.201Z,101585.47
2022-08-21T04:19:22.966Z,101587.38
2022-08-21T04:24:44.700Z,101601.34
2022-08-21T04:30:07.255Z,101594.94
2022-08-21T04:35:29.424Z,101603.56
2022-08-21T04:40:52.493Z,101624.78
2022-08-21T04:46:14.260Z,101617.78
2022-08-21T04:51:38.865Z,101608.59
2022-08-21T04:57:06.531Z,101592.06
2022-08-21T05:02:28.313Z,101611.63
2022-08-21T05:07:51.115Z,101611.63
2022-08-21T05:13:16.769Z,101614.41
2022-08-21T05:18:38.576Z,101621.97
2022-08-21T05:24:00.342Z,101627.78
2022-08-21T05:29:22.827Z,101628.91
2022-08-21T05:34:46.844Z,101627.22
2022-08-21T05:40:21.378Z,101639.22
2022-08-21T05:45:44.605Z,101632.22
2022-08-21T05:51:09.455Z,101641.19
2022-08-21T05:56:31.192Z,101640.59
2022-08-21T06:01:53.913Z,101643.38
2022-08-21T06:07:16.024Z,101646.19
2022-08-21T06:12:37.824Z,101640.00
2022-08-21T06:18:04.282Z,101638.03
2022-08-21T06:23:31.708Z,101636.34
2022-08-21T06:28:55.328Z,101643.38
2022-08-21T06:34:17.500Z,101657.38
2022-08-21T06:39:42.061Z,101661.75
2022-08-21T06:45:09.843Z,101656.28
2022-08-21T06:50:32.487Z,101644.41
2022-08-21T06:55:54.418Z,101639.72
2022-08-21T07:01:16.274Z,101641.97
2022-08-21T07:06:38.051Z,101649.22
2022-08-21T07:11:59.957Z,101645.09
2022-08-21T07:17:22.097Z,101654.00
2022-08-21T07:22:43.794Z,101647.59
2022-08-21T07:28:05.731Z,101644.28
2022-08-21T07:33:29.250Z,101647.13
2022-08-21T07:38:52.554Z,101647.47
2022-08-21T07:44:14.758Z,101650.56
2022-08-21T07:49:36.521Z,101645.56
2022-08-21T07:55:00.747Z,101646.69
2022-08-21T08:00:27.312Z,101646.69
2022-08-21T08:05:49.094Z,101634.97
2022-08-21T08:11:12.016Z,101639.19
2022-08-21T08:16:33.764Z,101634.47
2022-08-21T08:21:55.775Z,101636.41
2022-08-21T08:27:18.416Z,101636.94
2022-08-21T08:32:41.088Z,101617.63
2022-08-21T08:38:03.260Z,101618.50
2022-08-21T08:43:24.954Z,101625.19
2022-08-21T08:48:58.317Z,101616.22
2022-08-21T08:54:32.655Z,101614.53
2022-08-21T09:00:00.702Z,101611.16
2022-08-21T09:05:41.400Z,101595.25
2022-08-21T09:11:09.999Z,101606.16
2022-08-21T09:17:13.171Z,101604.53
2022-08-21T09:22:40.775Z,101584.69
2022-08-21T09:28:02.589Z,101586.91
2022-08-21T09:33:24.431Z,101602.84
2022-08-21T09:38:54.310Z,101599.47
2022-08-21T09:44:26.944Z,101599.97
2022-08-21T09:49:48.651Z,101600.50
2022-08-21T09:55:39.322Z,101594.91
2022-08-21T10:01:06.635Z,101584.28
2022-08-21T10:06:29.714Z,101588.19
2022-08-21T10:12:12.167Z,101579.53
2022-08-21T10:17:51.905Z,101588.19
2022-08-21T10:23:34.631Z,101582.59
2022-08-21T10:29:22.639Z,101584.53
2022-08-21T10:34:59.407Z,101579.22
2022-08-21T10:40:43.557Z,101580.91
2022-08-21T10:46:17.501Z,101572.53
2022-08-21T10:52:03.054Z,101568.63
2022-08-21T10:57:43.177Z,101563.06
2022-08-21T11:03:25.800Z,101571.44
2022-08-21T11:08:53.442Z,101566.66
2022-08-21T11:14:35.528Z,101571.44
2022-08-21T11:20:23.385Z,101565.28
2022-08-21T11:25:59.262Z,101565.88
2022-08-21T11:31:32.807Z,101564.75
2022-08-21T11:37:30.879Z,101557.47
2022-08-21T11:43:19.549Z,101569.25
2022-08-21T11:49:24.401Z,101565.34
2022-08-21T11:54:51.939Z,101562.53
2022-08-21T12:00:26.931Z,101564.22
2022-08-21T12:06:24.140Z,101556.97
2022-08-21T12:12:01.538Z,101553.88
2022-08-21T12:17:35.847Z,101539.91
2022-08-21T12:23:13.189Z,101535.75
2022-08-21T12:28:35.511Z,101551.66
2022-08-21T12:34:01.503Z,101546.38
2022-08-21T12:39:28.824Z,101557.56
2022-08-21T12:45:28.736Z,101558.41
2022-08-21T12:50:59.411Z,101555.34
2022-08-21T12:56:27.863Z,101559.00
2022-08-21T13:01:52.831Z,101560.94
2022-08-21T13:07:22.709Z,101552.53
2022-08-21T13:12:45.699Z,101546.97
2022-08-21T13:18:08.505Z,101555.34
2022-08-21T13:23:32.539Z,101550.84
2022-08-21T13:28:54.315Z,101548.94
2022-08-21T13:34:18.922Z,101552.81
2022-08-21T13:39:40.803Z,101548.06
2022-08-21T13:45:02.538Z,101548.06
2022-08-21T13:50:27.696Z,101544.16
2022-08-21T13:55:49.604Z,101538.28
2022-08-21T14:01:34.926Z,101531.03
2022-08-21T14:06:57.358Z,101537.75
2022-08-21T14:12:30.571Z,101524.34
2022-08-21T14:17:52.851Z,101532.72
2022-08-21T14:23:28.464Z,101534.13
2022-08-21T14:28:50.374Z,101537.50
2022-08-21T14:34:19.449Z,101524.94
2022-08-21T14:39:45.135Z,101521.88
2022-08-21T14:45:15.354Z,101525.25
2022-08-21T14:50:38.639Z,101516.84
2022-08-21T14:56:06.500Z,101521.34
2022-08-21T15:01:28.432Z,101519.66
2022-08-21T15:06:50.301Z,101526.09
2022-08-21T15:12:14.075Z,101524.13
2022-08-21T15:17:36.874Z,101525.81
2022-08-21T15:22:58.682Z,101516.59
2022-08-21T15:28:22.393Z,101516.84
2022-08-21T15:33:47.192Z,101516.28
2022-08-21T15:39:08.880Z,101513.75
2022-08-21T15:44:30.791Z,101515.97
2022-08-21T15:49:52.738Z,101505.59
2022-08-21T15:55:15.220Z,101507.56
2022-08-21T16:00:37.470Z,101507.00
2022-08-21T16:05:59.178Z,101515.09
2022-08-21T16:11:21.119Z,101519.56
2022-08-21T16:16:43.781Z,101509.75
2022-08-21T16:22:05.829Z,101506.13
2022-08-21T16:27:27.673Z,101512.53
2022-08-21T16:32:52.118Z,101501.66
2022-08-21T16:38:13.883Z,101508.34
2022-08-21T16:43:35.928Z,101503.84
2022-08-21T16:48:57.615Z,101499.38
2022-08-21T16:54:19.347Z,101506.94
2022-08-21T16:59:41.346Z,101507.19
2022-08-21T17:05:03.771Z,101505.50
2022-08-21T17:10:25.504Z,101507.47
2022-08-21T17:15:47.559Z,101504.94
2022-08-21T17:21:09.300Z,101506.06
2022-08-21T17:26:31.589Z,101497.94
2022-08-21T17:31:53.599Z,101499.03
2022-08-21T17:37:15.608Z,101501.00
2022-08-21T17:42:37.319Z,101510.50
2022-08-21T17:47:59.036Z,101503.22
2022-08-21T17:53:20.870Z,101491.50
2022-08-21T17:58:49.120Z,101495.19
2022-08-21T18:04:12.199Z,101504.16
2022-08-21T18:09:33.912Z,101501.91
2022-08-21T18:14:55.732Z,101505.56
2022-08-21T18:20:20.853Z,101498.84
2022-08-21T18:25:46.677Z,101504.16
2022-08-21T18:31:11.004Z,101501.91
2022-08-21T18:36:32.755Z,101510.03
2022-08-21T18:41:55.648Z,101510.03
2022-08-21T18:47:29.047Z,101513.94
2022-08-21T18:52:53.701Z,101517.00
2022-08-21T18:58:17.019Z,101521.22
2022-08-21T19:03:39.761Z,101527.31
2022-08-21T19:09:02.231Z,101530.41
2022-08-21T19:14:24.055Z,101530.41
2022-08-21T19:19:47.586Z,101528.72
2022-08-21T19:25:14.030Z,101537.34
2022-08-21T19:30:41.714Z,101532.03
2022-08-21T19:36:05.061Z,101539.59
2022-08-21T19:41:31.745Z,101547.97
2022-08-21T19:46:55.028Z,101557.47
2022-08-21T19:52:19.023Z,101551.38
2022-08-21T19:57:40.808Z,101556.97
2022-08-21T20:03:02.818Z,101555.28
2022-08-21T20:08:28.163Z,101548.00
2022-08-21T20:13:50.066Z,101548.28
2022-08-21T20:19:11.805Z,101541.28
2022-08-21T20:24:34.258Z,101536.78
2022-08-21T20:29:56.062Z,101544.59
2022-08-21T20:35:17.819Z,101534.53
2022-08-21T20:40:39.682Z,101544.03
2022-08-21T20:46:02.155Z,101540.66
2022-08-21T20:51:34.873Z,101545.41
2022-08-21T20:57:14.865Z,101538.13
2022-08-21T21:02:42.939Z,101537.28
2022-08-21T21:08:12.877Z,101540.34
2022-08-21T21:13:43.064Z,101537.81
2022-08-21T21:19:14.486Z,101538.94
2022-08-21T21:24:51.734Z,101540.63
2022-08-21T21:30:28.749Z,101536.13
2022-08-21T21:35:55.053Z,101533.59
2022-08-21T21:41:33.697Z,101528.00
2022-08-21T21:47:11.843Z,101531.06
2022-08-21T21:52:54.590Z,101532.19
2022-08-21T21:58:38.650Z,101537.19
2022-08-21T22:04:16.917Z,101541.63
2022-08-21T22:09:43.675Z,101531.88
2022-08-21T22:15:07.058Z,101529.34
2022-08-21T22:20:35.214Z,101531.03
2022-08-21T22:26:04.169Z,101529.34
2022-08-21T22:31:32.801Z,101525.72
2022-08-21T22:37:01.174Z,101518.44
2022-08-21T22:42:25.597Z,101539.09
2022-08-21T22:47:48.951Z,101543.00
2022-08-21T22:53:11.534Z,101536.31
2022-08-21T22:58:55.610Z,101553.91
2022-08-21T23:04:21.830Z,101547.47
2022-08-21T23:09:48.430Z,101542.16
2022-08-21T23:15:18.092Z,101544.38
2022-08-21T23:20:56.122Z,101543.00
2022-08-21T23:26:22.841Z,101532.09
2022-08-21T23:31:58.270Z,101533.22
2022-08-21T23:43:57.687Z,101510.88
2022-08-21T23:49:43.928Z,101513.66
2022-08-21T23:55:24.737Z,101507.47
